sensor_id;sensor_type;location;lat;lon;timestamp;temperature;humidity
64843;DHT22;51310;52.198;5.422;2022-09-09T00:01:58;15.40;99.90
64843;DHT22;51310;52.198;5.422;2022-09-09T00:04:34;15.40;99.90
64843;DHT22;51310;52.198;5.422;2022-09-09T00:09:54;15.30;99.90
64843;DHT22;51310;52.198;5.422;2022-09-09T00:16:04;15.20;99.90
64843;DHT22;51310;52.198;5.422;2022-09-09T00:24:49;15.20;99.90
64843;DHT22;51310;52.198;5.422;2022-09-09T00:27:30;15.30;99.90
64843;DHT22;51310;52.198;5.422;2022-09-09T00:32:55;15.20;99.90
64843;DHT22;51310;52.198;5.422;2022-09-09T00:35:35;15.10;99.90
64843;DHT22;51310;52.198;5.422;2022-09-09T00:38:15;15.20;99.90
64843;DHT22;51310;52.198;5.422;2022-09-09T00:41:11;15.20;99.90
64843;DHT22;51310;52.198;5.422;2022-09-09T00:44:18;15.10;99.90
64843;DHT22;51310;52.198;5.422;2022-09-09T00:47:21;15.10;99.90
64843;DHT22;51310;52.198;5.422;2022-09-09T00:50:35;15.10;99.90
64843;DHT22;51310;52.198;5.422;2022-09-09T01:03:47;14.90;99.90
64843;DHT22;51310;52.198;5.422;2022-09-09T01:06:33;15.00;99.90
64843;DHT22;51310;52.198;5.422;2022-09-09T01:12:16;14.90;99.90
64843;DHT22;51310;52.198;5.422;2022-09-09T01:14:56;14.90;99.90
64843;DHT22;51310;52.198;5.422;2022-09-09T01:20:30;14.80;99.90
64843;DHT22;51310;52.198;5.422;2022-09-09T01:23:33;14.80;99.90
64843;DHT22;51310;52.198;5.422;2022-09-09T01:26:28;14.70;99.90
64843;DHT22;51310;52.198;5.422;2022-09-09T01:28:59;14.70;99.90
64843;DHT22;51310;52.198;5.422;2022-09-09T01:31:30;14.60;99.90
64843;DHT22;51310;52.198;5.422;2022-09-09T01:34:07;14.60;99.90
64843;DHT22;51310;52.198;5.422;2022-09-09T01:36:49;14.60;99.90
64843;DHT22;51310;52.198;5.422;2022-09-09T01:39:24;14.60;99.90
64843;DHT22;51310;52.198;5.422;2022-09-09T01:41:52;14.50;99.90
64843;DHT22;51310;52.198;5.422;2022-09-09T01:44:19;14.50;99.90
64843;DHT22;51310;52.198;5.422;2022-09-09T01:46:45;14.40;99.90
64843;DHT22;51310;52.198;5.422;2022-09-09T01:49:11;14.50;99.90
64843;DHT22;51310;52.198;5.422;2022-09-09T01:51:39;14.40;99.90
64843;DHT22;51310;52.198;5.422;2022-09-09T01:54:07;14.30;99.90
64843;DHT22;51310;52.198;5.422;2022-09-09T01:56:40;14.30;99.90
64843;DHT22;51310;52.198;5.422;2022-09-09T01:59:35;14.30;99.90
64843;DHT22;51310;52.198;5.422;2022-09-09T02:02:32;14.20;99.90
64843;DHT22;51310;52.198;5.422;2022-09-09T02:08:13;14.20;99.90
64843;DHT22;51310;52.198;5.422;2022-09-09T02:13:48;14.20;99.90
64843;DHT22;51310;52.198;5.422;2022-09-09T02:16:23;14.20;99.90
64843;DHT22;51310;52.198;5.422;2022-09-09T02:19:16;14.20;99.90
64843;DHT22;51310;52.198;5.422;2022-09-09T02:21:54;14.50;99.90
64843;DHT22;51310;52.198;5.422;2022-09-09T02:24:23;14.60;99.90
64843;DHT22;51310;52.198;5.422;2022-09-09T02:26:53;14.80;99.90
64843;DHT22;51310;52.198;5.422;2022-09-09T02:29:29;14.80;99.90
64843;DHT22;51310;52.198;5.422;2022-09-09T02:32:03;14.80;99.90
64843;DHT22;51310;52.198;5.422;2022-09-09T02:34:37;14.60;99.90
64843;DHT22;51310;52.198;5.422;2022-09-09T02:37:09;14.50;99.90
64843;DHT22;51310;52.198;5.422;2022-09-09T02:39:37;14.60;99.90
64843;DHT22;51310;52.198;5.422;2022-09-09T02:42:04;14.60;99.90
64843;DHT22;51310;52.198;5.422;2022-09-09T02:44:30;14.60;99.90
64843;DHT22;51310;52.198;5.422;2022-09-09T02:50:39;14.30;99.90
64843;DHT22;51310;52.198;5.422;2022-09-09T02:53:27;14.20;99.90
64843;DHT22;51310;52.198;5.422;2022-09-09T02:56:21;14.10;99.90
64843;DHT22;51310;52.198;5.422;2022-09-09T02:58:52;14.10;99.90
64843;DHT22;51310;52.198;5.422;2022-09-09T03:01:18;14.00;99.90
64843;DHT22;51310;52.198;5.422;2022-09-09T03:03:44;14.10;99.90
64843;DHT22;51310;52.198;5.422;2022-09-09T03:06:11;14.10;99.90
64843;DHT22;51310;52.198;5.422;2022-09-09T03:08:38;14.00;99.90
64843;DHT22;51310;52.198;5.422;2022-09-09T03:11:04;14.00;99.90
64843;DHT22;51310;52.198;5.422;2022-09-09T03:13:30;13.90;99.90
64843;DHT22;51310;52.198;5.422;2022-09-09T03:15:55;13.90;99.90
64843;DHT22;51310;52.198;5.422;2022-09-09T03:18:21;13.90;99.90
64843;DHT22;51310;52.198;5.422;2022-09-09T03:20:48;13.80;99.90
64843;DHT22;51310;52.198;5.422;2022-09-09T03:23:14;13.80;99.90
64843;DHT22;51310;52.198;5.422;2022-09-09T03:25:46;13.90;99.90
64843;DHT22;51310;52.198;5.422;2022-09-09T03:28:14;13.80;99.90
64843;DHT22;51310;52.198;5.422;2022-09-09T03:30:40;13.80;99.90
64843;DHT22;51310;52.198;5.422;2022-09-09T03:33:06;13.80;99.90
64843;DHT22;51310;52.198;5.422;2022-09-09T03:35:32;13.90;99.90
64843;DHT22;51310;52.198;5.422;2022-09-09T03:37:58;13.80;99.90
64843;DHT22;51310;52.198;5.422;2022-09-09T03:40:26;13.80;99.90
64843;DHT22;51310;52.198;5.422;2022-09-09T03:42:52;13.70;99.90
64843;DHT22;51310;52.198;5.422;2022-09-09T03:45:18;13.80;99.90
64843;DHT22;51310;52.198;5.422;2022-09-09T03:47:44;13.70;99.90
64843;DHT22;51310;52.198;5.422;2022-09-09T03:50:10;13.70;99.90
64843;DHT22;51310;52.198;5.422;2022-09-09T03:52:38;13.70;99.90
64843;DHT22;51310;52.198;5.422;2022-09-09T03:55:06;13.60;99.90
64843;DHT22;51310;52.198;5.422;2022-09-09T03:57:33;13.60;99.90
64843;DHT22;51310;52.198;5.422;2022-09-09T04:00:05;13.70;99.90
64843;DHT22;51310;52.198;5.422;2022-09-09T04:02:33;13.60;99.90
64843;DHT22;51310;52.198;5.422;2022-09-09T04:07:26;13.60;99.90
64843;DHT22;51310;52.198;5.422;2022-09-09T04:09:53;13.60;99.90
64843;DHT22;51310;52.198;5.422;2022-09-09T04:12:20;13.50;99.90
64843;DHT22;51310;52.198;5.422;2022-09-09T04:14:46;13.50;99.90
64843;DHT22;51310;52.198;5.422;2022-09-09T04:17:12;13.50;99.90
64843;DHT22;51310;52.198;5.422;2022-09-09T04:19:37;13.50;99.90
64843;DHT22;51310;52.198;5.422;2022-09-09T04:22:04;13.50;99.90
64843;DHT22;51310;52.198;5.422;2022-09-09T04:24:29;13.50;99.90
64843;DHT22;51310;52.198;5.422;2022-09-09T04:26:55;13.50;99.90
64843;DHT22;51310;52.198;5.422;2022-09-09T04:29:21;13.50;99.90
64843;DHT22;51310;52.198;5.422;2022-09-09T04:31:47;13.40;99.90
64843;DHT22;51310;52.198;5.422;2022-09-09T04:34:13;13.50;99.90
64843;DHT22;51310;52.198;5.422;2022-09-09T04:36:39;13.40;99.90
64843;DHT22;51310;52.198;5.422;2022-09-09T04:39:05;13.40;99.90
64843;DHT22;51310;52.198;5.422;2022-09-09T04:41:32;13.50;99.90
64843;DHT22;51310;52.198;5.422;2022-09-09T04:43:58;13.50;99.90
64843;DHT22;51310;52.198;5.422;2022-09-09T04:46:26;13.60;99.90
64843;DHT22;51310;52.198;5.422;2022-09-09T04:48:52;13.70;99.90
64843;DHT22;51310;52.198;5.422;2022-09-09T04:51:19;13.70;99.90
64843;DHT22;51310;52.198;5.422;2022-09-09T04:53:45;13.70;99.90
64843;DHT22;51310;52.198;5.422;2022-09-09T04:56:14;13.80;99.90
64843;DHT22;51310;52.198;5.422;2022-09-09T04:58:42;13.80;99.90
64843;DHT22;51310;52.198;5.422;2022-09-09T05:01:09;13.70;99.90
64843;DHT22;51310;52.198;5.422;2022-09-09T05:06:09;13.60;99.90
64843;DHT22;51310;52.198;5.422;2022-09-09T05:11:23;13.60;99.90
64843;DHT22;51310;52.198;5.422;2022-09-09T05:13:51;13.60;99.90
64843;DHT22;51310;52.198;5.422;2022-09-09T05:16:19;13.60;99.90
64843;DHT22;51310;52.198;5.422;2022-09-09T05:18:46;13.60;99.90
64843;DHT22;51310;52.198;5.422;2022-09-09T05:21:14;13.70;99.90
64843;DHT22;51310;52.198;5.422;2022-09-09T05:23:41;13.60;99.90
64843;DHT22;51310;52.198;5.422;2022-09-09T05:26:11;13.70;99.90
64843;DHT22;51310;52.198;5.422;2022-09-09T05:28:40;13.60;99.90
64843;DHT22;51310;52.198;5.422;2022-09-09T05:31:07;13.70;99.90
64843;DHT22;51310;52.198;5.422;2022-09-09T05:33:38;13.80;99.90
64843;DHT22;51310;52.198;5.422;2022-09-09T05:36:16;13.70;99.90
64843;DHT22;51310;52.198;5.422;2022-09-09T05:38:45;13.90;99.90
64843;DHT22;51310;52.198;5.422;2022-09-09T05:41:13;13.90;99.90
64843;DHT22;51310;52.198;5.422;2022-09-09T05:43:43;13.90;99.90
64843;DHT22;51310;52.198;5.422;2022-09-09T05:46:17;13.80;99.90
64843;DHT22;51310;52.198;5.422;2022-09-09T05:48:47;13.80;99.90
64843;DHT22;51310;52.198;5.422;2022-09-09T05:51:21;14.20;99.90
64843;DHT22;51310;52.198;5.422;2022-09-09T05:53:53;13.90;99.90
64843;DHT22;51310;52.198;5.422;2022-09-09T05:56:27;13.90;99.90
64843;DHT22;51310;52.198;5.422;2022-09-09T05:58:55;13.90;99.90
64843;DHT22;51310;52.198;5.422;2022-09-09T06:01:27;14.00;99.90
64843;DHT22;51310;52.198;5.422;2022-09-09T06:03:56;14.00;99.90
64843;DHT22;51310;52.198;5.422;2022-09-09T06:06:30;14.00;99.90
64843;DHT22;51310;52.198;5.422;2022-09-09T06:09:03;14.10;99.90
64843;DHT22;51310;52.198;5.422;2022-09-09T06:11:32;14.20;99.90
64843;DHT22;51310;52.198;5.422;2022-09-09T06:13:59;14.20;99.90
64843;DHT22;51310;52.198;5.422;2022-09-09T06:16:27;14.30;99.90
64843;DHT22;51310;52.198;5.422;2022-09-09T06:18:55;14.30;99.90
64843;DHT22;51310;52.198;5.422;2022-09-09T06:21:27;14.40;99.90
64843;DHT22;51310;52.198;5.422;2022-09-09T06:23:56;14.40;99.90
64843;DHT22;51310;52.198;5.422;2022-09-09T06:26:28;14.50;99.90
64843;DHT22;51310;52.198;5.422;2022-09-09T06:28:57;14.50;99.90
64843;DHT22;51310;52.198;5.422;2022-09-09T06:31:26;14.50;99.90
64843;DHT22;51310;52.198;5.422;2022-09-09T06:33:58;14.60;99.90
64843;DHT22;51310;52.198;5.422;2022-09-09T06:36:26;14.60;99.90
64843;DHT22;51310;52.198;5.422;2022-09-09T06:38:55;14.70;99.90
64843;DHT22;51310;52.198;5.422;2022-09-09T06:41:23;14.70;99.90
64843;DHT22;51310;52.198;5.422;2022-09-09T06:43:52;14.90;99.90
64843;DHT22;51310;52.198;5.422;2022-09-09T06:46:23;15.10;99.90
64843;DHT22;51310;52.198;5.422;2022-09-09T06:48:53;15.20;99.90
64843;DHT22;51310;52.198;5.422;2022-09-09T06:51:22;15.40;99.90
64843;DHT22;51310;52.198;5.422;2022-09-09T06:53:52;15.60;99.90
64843;DHT22;51310;52.198;5.422;2022-09-09T06:56:28;15.70;99.90
64843;DHT22;51310;52.198;5.422;2022-09-09T06:59:09;15.90;99.90
64843;DHT22;51310;52.198;5.422;2022-09-09T07:01:41;15.90;99.90
64843;DHT22;51310;52.198;5.422;2022-09-09T07:04:10;15.90;99.90
64843;DHT22;51310;52.198;5.422;2022-09-09T07:06:43;16.10;99.90
64843;DHT22;51310;52.198;5.422;2022-09-09T07:11:43;16.40;99.90
64843;DHT22;51310;52.198;5.422;2022-09-09T07:14:11;16.50;99.90
64843;DHT22;51310;52.198;5.422;2022-09-09T07:16:42;16.50;99.90
64843;DHT22;51310;52.198;5.422;2022-09-09T07:19:10;16.50;99.90
64843;DHT22;51310;52.198;5.422;2022-09-09T07:21:38;16.60;99.90
64843;DHT22;51310;52.198;5.422;2022-09-09T07:24:05;16.60;99.90
64843;DHT22;51310;52.198;5.422;2022-09-09T07:26:35;16.70;99.90
64843;DHT22;51310;52.198;5.422;2022-09-09T07:29:03;16.60;99.90
64843;DHT22;51310;52.198;5.422;2022-09-09T07:31:35;16.50;99.90
64843;DHT22;51310;52.198;5.422;2022-09-09T07:34:04;16.50;99.90
64843;DHT22;51310;52.198;5.422;2022-09-09T07:36:33;16.50;99.90
64843;DHT22;51310;52.198;5.422;2022-09-09T07:39:04;16.60;99.90
64843;DHT22;51310;52.198;5.422;2022-09-09T07:41:36;16.60;99.90
64843;DHT22;51310;52.198;5.422;2022-09-09T07:44:09;16.60;99.90
64843;DHT22;51310;52.198;5.422;2022-09-09T07:46:47;16.60;99.90
64843;DHT22;51310;52.198;5.422;2022-09-09T07:49:14;16.70;99.90
64843;DHT22;51310;52.198;5.422;2022-09-09T07:51:42;16.90;99.90
64843;DHT22;51310;52.198;5.422;2022-09-09T07:54:13;17.00;99.90
64843;DHT22;51310;52.198;5.422;2022-09-09T07:56:41;17.10;99.90
64843;DHT22;51310;52.198;5.422;2022-09-09T07:59:08;17.10;99.90
64843;DHT22;51310;52.198;5.422;2022-09-09T08:01:40;17.40;99.90
64843;DHT22;51310;52.198;5.422;2022-09-09T08:04:17;17.60;99.90
64843;DHT22;51310;52.198;5.422;2022-09-09T08:06:47;17.80;99.90
64843;DHT22;51310;52.198;5.422;2022-09-09T08:09:18;17.90;99.90
64843;DHT22;51310;52.198;5.422;2022-09-09T08:11:45;20.70;99.90
64843;DHT22;51310;52.198;5.422;2022-09-09T08:14:11;18.00;99.90
64843;DHT22;51310;52.198;5.422;2022-09-09T08:16:42;18.00;99.90
64843;DHT22;51310;52.198;5.422;2022-09-09T08:19:11;18.00;99.90
64843;DHT22;51310;52.198;5.422;2022-09-09T08:21:39;18.00;99.90
64843;DHT22;51310;52.198;5.422;2022-09-09T08:24:07;18.00;99.90
64843;DHT22;51310;52.198;5.422;2022-09-09T08:26:41;18.00;99.90
64843;DHT22;51310;52.198;5.422;2022-09-09T08:29:11;17.70;99.90
64843;DHT22;51310;52.198;5.422;2022-09-09T08:31:50;17.70;99.90
64843;DHT22;51310;52.198;5.422;2022-09-09T08:34:20;17.60;99.90
64843;DHT22;51310;52.198;5.422;2022-09-09T08:36:48;17.50;99.90
64843;DHT22;51310;52.198;5.422;2022-09-09T08:39:17;17.50;99.90
64843;DHT22;51310;52.198;5.422;2022-09-09T08:44:31;17.50;99.90
64843;DHT22;51310;52.198;5.422;2022-09-09T08:50:20;17.50;99.90
64843;DHT22;51310;52.198;5.422;2022-09-09T08:53:02;17.50;99.90
64843;DHT22;51310;52.198;5.422;2022-09-09T08:55:56;17.70;99.90
64843;DHT22;51310;52.198;5.422;2022-09-09T08:58:33;17.70;99.90
64843;DHT22;51310;52.198;5.422;2022-09-09T09:12:55;17.90;99.90
64843;DHT22;51310;52.198;5.422;2022-09-09T09:15:30;17.90;99.90
64843;DHT22;51310;52.198;5.422;2022-09-09T09:18:04;17.90;99.90
64843;DHT22;51310;52.198;5.422;2022-09-09T09:21:48;17.80;99.90
64843;DHT22;51310;52.198;5.422;2022-09-09T09:24:19;17.90;99.90
64843;DHT22;51310;52.198;5.422;2022-09-09T09:26:51;17.80;99.90
64843;DHT22;51310;52.198;5.422;2022-09-09T09:29:19;17.70;99.90
64843;DHT22;51310;52.198;5.422;2022-09-09T09:31:55;17.60;99.90
64843;DHT22;51310;52.198;5.422;2022-09-09T09:34:27;17.50;99.90
64843;DHT22;51310;52.198;5.422;2022-09-09T09:36:56;17.50;99.90
64843;DHT22;51310;52.198;5.422;2022-09-09T09:39:29;17.50;99.90
64843;DHT22;51310;52.198;5.422;2022-09-09T09:42:10;17.40;99.90
64843;DHT22;51310;52.198;5.422;2022-09-09T09:44:41;17.40;99.90
64843;DHT22;51310;52.198;5.422;2022-09-09T09:47:15;17.50;99.90
64843;DHT22;51310;52.198;5.422;2022-09-09T09:49:57;17.50;99.90
64843;DHT22;51310;52.198;5.422;2022-09-09T09:52:29;17.50;99.90
64843;DHT22;51310;52.198;5.422;2022-09-09T09:55:03;17.70;99.90
64843;DHT22;51310;52.198;5.422;2022-09-09T09:57:33;17.80;99.90
64843;DHT22;51310;52.198;5.422;2022-09-09T10:00:20;17.70;99.90
64843;DHT22;51310;52.198;5.422;2022-09-09T10:02:49;17.90;99.90
64843;DHT22;51310;52.198;5.422;2022-09-09T10:05:22;17.90;99.90
64843;DHT22;51310;52.198;5.422;2022-09-09T10:08:05;18.00;99.90
64843;DHT22;51310;52.198;5.422;2022-09-09T10:22:36;18.30;99.90
64843;DHT22;51310;52.198;5.422;2022-09-09T10:25:31;18.30;99.90
64843;DHT22;51310;52.198;5.422;2022-09-09T10:28:40;18.30;99.90
64843;DHT22;51310;52.198;5.422;2022-09-09T10:59:07;18.10;99.90
64843;DHT22;51310;52.198;5.422;2022-09-09T11:01:57;18.10;99.90
64843;DHT22;51310;52.198;5.422;2022-09-09T11:04:40;18.10;99.90
64843;DHT22;51310;52.198;5.422;2022-09-09T11:07:42;18.10;99.90
64843;DHT22;51310;52.198;5.422;2022-09-09T11:10:41;18.00;99.90
64843;DHT22;51310;52.198;5.422;2022-09-09T11:16:39;18.20;99.90
64843;DHT22;51310;52.198;5.422;2022-09-09T11:19:30;18.50;99.90
64843;DHT22;51310;52.198;5.422;2022-09-09T11:22:29;18.80;99.90
64843;DHT22;51310;52.198;5.422;2022-09-09T11:25:18;18.80;99.90
64843;DHT22;51310;52.198;5.422;2022-09-09T11:27:59;18.80;99.90
64843;DHT22;51310;52.198;5.422;2022-09-09T11:36:43;18.90;99.90
64843;DHT22;51310;52.198;5.422;2022-09-09T11:42:18;18.70;99.90
64843;DHT22;51310;52.198;5.422;2022-09-09T11:44:47;18.60;99.90
64843;DHT22;51310;52.198;5.422;2022-09-09T11:47:28;18.70;99.90
64843;DHT22;51310;52.198;5.422;2022-09-09T11:52:45;18.70;99.90
64843;DHT22;51310;52.198;5.422;2022-09-09T11:55:34;18.80;99.90
64843;DHT22;51310;52.198;5.422;2022-09-09T12:06:18;18.70;99.90
64843;DHT22;51310;52.198;5.422;2022-09-09T12:08:55;18.80;99.90
64843;DHT22;51310;52.198;5.422;2022-09-09T12:11:34;18.50;99.90
64843;DHT22;51310;52.198;5.422;2022-09-09T12:16:30;18.70;99.90
64843;DHT22;51310;52.198;5.422;2022-09-09T12:19:26;18.70;99.90
64843;DHT22;51310;52.198;5.422;2022-09-09T12:22:01;18.90;99.90
64843;DHT22;51310;52.198;5.422;2022-09-09T12:24:46;19.00;99.90
64843;DHT22;51310;52.198;5.422;2022-09-09T12:27:25;19.00;99.90
64843;DHT22;51310;52.198;5.422;2022-09-09T12:30:02;18.90;99.90
64843;DHT22;51310;52.198;5.422;2022-09-09T12:32:36;18.70;99.90
64843;DHT22;51310;52.198;5.422;2022-09-09T12:35:09;18.40;99.90
64843;DHT22;51310;52.198;5.422;2022-09-09T12:37:56;18.20;99.90
64843;DHT22;51310;52.198;5.422;2022-09-09T12:40:29;18.10;99.90
64843;DHT22;51310;52.198;5.422;2022-09-09T12:43:01;18.00;99.90
64843;DHT22;51310;52.198;5.422;2022-09-09T12:45:41;18.10;99.90
64843;DHT22;51310;52.198;5.422;2022-09-09T12:48:09;18.40;99.90
64843;DHT22;51310;52.198;5.422;2022-09-09T12:50:48;18.50;99.90
64843;DHT22;51310;52.198;5.422;2022-09-09T12:53:32;18.90;99.90
64843;DHT22;51310;52.198;5.422;2022-09-09T12:56:03;19.00;99.90
64843;DHT22;51310;52.198;5.422;2022-09-09T12:58:34;18.90;99.90
64843;DHT22;51310;52.198;5.422;2022-09-09T13:01:04;18.80;99.90
64843;DHT22;51310;52.198;5.422;2022-09-09T13:03:32;18.70;99.90
64843;DHT22;51310;52.198;5.422;2022-09-09T13:06:13;18.80;99.90
64843;DHT22;51310;52.198;5.422;2022-09-09T13:08:51;18.90;99.90
64843;DHT22;51310;52.198;5.422;2022-09-09T13:11:38;19.00;99.90
64843;DHT22;51310;52.198;5.422;2022-09-09T13:14:16;19.50;99.90
64843;DHT22;51310;52.198;5.422;2022-09-09T13:16:59;19.60;99.90
64843;DHT22;51310;52.198;5.422;2022-09-09T13:19:32;19.60;99.90
64843;DHT22;51310;52.198;5.422;2022-09-09T13:22:28;19.70;99.90
64843;DHT22;51310;52.198;5.422;2022-09-09T13:27:40;19.70;99.90
64843;DHT22;51310;52.198;5.422;2022-09-09T13:33:22;19.70;99.90
64843;DHT22;51310;52.198;5.422;2022-09-09T13:35:55;19.70;99.90
64843;DHT22;51310;52.198;5.422;2022-09-09T13:38:24;19.70;99.90
64843;DHT22;51310;52.198;5.422;2022-09-09T13:40:54;19.70;99.90
64843;DHT22;51310;52.198;5.422;2022-09-09T13:43:31;19.50;99.90
64843;DHT22;51310;52.198;5.422;2022-09-09T13:46:34;19.30;99.90
64843;DHT22;51310;52.198;5.422;2022-09-09T13:51:35;18.90;99.90
64843;DHT22;51310;52.198;5.422;2022-09-09T13:54:05;18.80;99.90
64843;DHT22;51310;52.198;5.422;2022-09-09T13:56:33;18.80;99.90
64843;DHT22;51310;52.198;5.422;2022-09-09T14:01:28;18.80;99.90
64843;DHT22;51310;52.198;5.422;2022-09-09T14:03:54;18.80;99.90
64843;DHT22;51310;52.198;5.422;2022-09-09T14:06:21;18.90;99.90
64843;DHT22;51310;52.198;5.422;2022-09-09T14:08:48;18.90;99.90
64843;DHT22;51310;52.198;5.422;2022-09-09T14:11:16;18.80;99.90
64843;DHT22;51310;52.198;5.422;2022-09-09T14:13:44;18.70;99.90
64843;DHT22;51310;52.198;5.422;2022-09-09T14:16:10;18.60;99.90
64843;DHT22;51310;52.198;5.422;2022-09-09T14:18:36;18.50;99.90
64843;DHT22;51310;52.198;5.422;2022-09-09T14:21:03;18.50;99.90
64843;DHT22;51310;52.198;5.422;2022-09-09T14:23:29;18.70;99.90
64843;DHT22;51310;52.198;5.422;2022-09-09T14:25:55;18.50;99.90
64843;DHT22;51310;52.198;5.422;2022-09-09T14:28:22;18.60;99.90
64843;DHT22;51310;52.198;5.422;2022-09-09T14:30:48;18.70;99.90
64843;DHT22;51310;52.198;5.422;2022-09-09T14:33:15;18.70;99.90
64843;DHT22;51310;52.198;5.422;2022-09-09T14:35:42;18.80;99.90
64843;DHT22;51310;52.198;5.422;2022-09-09T14:38:09;18.80;99.90
64843;DHT22;51310;52.198;5.422;2022-09-09T14:40:37;18.70;99.90
64843;DHT22;51310;52.198;5.422;2022-09-09T14:43:05;18.60;99.90
64843;DHT22;51310;52.198;5.422;2022-09-09T14:45:31;18.70;99.90
64843;DHT22;51310;52.198;5.422;2022-09-09T14:47:57;18.60;99.90
64843;DHT22;51310;52.198;5.422;2022-09-09T14:50:24;18.60;99.90
64843;DHT22;51310;52.198;5.422;2022-09-09T14:52:50;18.70;99.90
64843;DHT22;51310;52.198;5.422;2022-09-09T14:55:17;18.70;99.90
64843;DHT22;51310;52.198;5.422;2022-09-09T14:57:42;18.60;99.90
64843;DHT22;51310;52.198;5.422;2022-09-09T15:00:10;18.50;99.90
64843;DHT22;51310;52.198;5.422;2022-09-09T15:02:36;18.50;99.90
64843;DHT22;51310;52.198;5.422;2022-09-09T15:05:03;18.50;99.90
64843;DHT22;51310;52.198;5.422;2022-09-09T15:07:30;18.50;99.90
64843;DHT22;51310;52.198;5.422;2022-09-09T15:09:57;18.60;99.90
64843;DHT22;51310;52.198;5.422;2022-09-09T15:12:24;18.90;99.90
64843;DHT22;51310;52.198;5.422;2022-09-09T15:14:50;18.90;99.90
64843;DHT22;51310;52.198;5.422;2022-09-09T15:17:16;19.00;99.90
64843;DHT22;51310;52.198;5.422;2022-09-09T15:19:42;19.20;99.90
64843;DHT22;51310;52.198;5.422;2022-09-09T15:22:08;19.20;99.90
64843;DHT22;51310;52.198;5.422;2022-09-09T15:24:34;19.20;99.90
64843;DHT22;51310;52.198;5.422;2022-09-09T15:27:01;19.30;99.90
64843;DHT22;51310;52.198;5.422;2022-09-09T15:29:27;19.20;99.90
64843;DHT22;51310;52.198;5.422;2022-09-09T15:31:54;19.10;99.90
64843;DHT22;51310;52.198;5.422;2022-09-09T15:34:21;19.00;99.90
64843;DHT22;51310;52.198;5.422;2022-09-09T15:36:47;19.00;99.90
64843;DHT22;51310;52.198;5.422;2022-09-09T15:41:46;18.90;99.90
64843;DHT22;51310;52.198;5.422;2022-09-09T15:44:14;18.80;99.90
64843;DHT22;51310;52.198;5.422;2022-09-09T15:46:44;18.80;99.90
64843;DHT22;51310;52.198;5.422;2022-09-09T15:49:21;18.70;99.90
64843;DHT22;51310;52.198;5.422;2022-09-09T15:52:00;18.60;99.90
64843;DHT22;51310;52.198;5.422;2022-09-09T15:54:32;18.70;99.90
64843;DHT22;51310;52.198;5.422;2022-09-09T15:57:03;18.50;99.90
64843;DHT22;51310;52.198;5.422;2022-09-09T15:59:31;18.50;99.90
64843;DHT22;51310;52.198;5.422;2022-09-09T16:01:59;18.50;99.90
64843;DHT22;51310;52.198;5.422;2022-09-09T16:04:26;18.50;99.90
64843;DHT22;51310;52.198;5.422;2022-09-09T16:07:05;18.50;99.90
64843;DHT22;51310;52.198;5.422;2022-09-09T16:09:32;18.50;99.90
64843;DHT22;51310;52.198;5.422;2022-09-09T16:12:00;18.50;99.90
64843;DHT22;51310;52.198;5.422;2022-09-09T16:14:28;18.60;99.90
64843;DHT22;51310;52.198;5.422;2022-09-09T16:16:59;18.50;99.90
64843;DHT22;51310;52.198;5.422;2022-09-09T16:19:26;18.60;99.90
64843;DHT22;51310;52.198;5.422;2022-09-09T16:21:51;18.70;99.90
64843;DHT22;51310;52.198;5.422;2022-09-09T16:24:19;18.70;99.90
64843;DHT22;51310;52.198;5.422;2022-09-09T16:26:48;18.80;99.90
64843;DHT22;51310;52.198;5.422;2022-09-09T16:29:18;18.80;99.90
64843;DHT22;51310;52.198;5.422;2022-09-09T16:31:45;18.70;99.90
64843;DHT22;51310;52.198;5.422;2022-09-09T16:34:12;18.70;99.90
64843;DHT22;51310;52.198;5.422;2022-09-09T16:36:41;18.70;99.90
64843;DHT22;51310;52.198;5.422;2022-09-09T16:39:11;18.60;99.90
64843;DHT22;51310;52.198;5.422;2022-09-09T16:41:41;18.50;99.90
64843;DHT22;51310;52.198;5.422;2022-09-09T16:44:10;18.40;99.90
64843;DHT22;51310;52.198;5.422;2022-09-09T16:46:40;18.30;99.90
64843;DHT22;51310;52.198;5.422;2022-09-09T16:49:09;18.20;99.90
64843;DHT22;51310;52.198;5.422;2022-09-09T16:51:44;18.10;99.90
64843;DHT22;51310;52.198;5.422;2022-09-09T16:54:13;18.10;99.90
64843;DHT22;51310;52.198;5.422;2022-09-09T16:56:43;18.10;99.90
64843;DHT22;51310;52.198;5.422;2022-09-09T16:59:14;18.10;99.90
64843;DHT22;51310;52.198;5.422;2022-09-09T17:01:43;18.20;99.90
64843;DHT22;51310;52.198;5.422;2022-09-09T17:04:17;18.20;99.90
64843;DHT22;51310;52.198;5.422;2022-09-09T17:06:47;18.20;99.90
64843;DHT22;51310;52.198;5.422;2022-09-09T17:09:15;18.20;99.90
64843;DHT22;51310;52.198;5.422;2022-09-09T17:14:14;18.20;99.90
64843;DHT22;51310;52.198;5.422;2022-09-09T17:16:42;18.10;99.90
64843;DHT22;51310;52.198;5.422;2022-09-09T17:19:10;18.10;99.90
64843;DHT22;51310;52.198;5.422;2022-09-09T17:21:37;18.00;99.90
64843;DHT22;51310;52.198;5.422;2022-09-09T17:24:04;18.00;99.90
64843;DHT22;51310;52.198;5.422;2022-09-09T17:26:31;17.90;99.90
64843;DHT22;51310;52.198;5.422;2022-09-09T17:28:59;17.90;99.90
64843;DHT22;51310;52.198;5.422;2022-09-09T17:31:27;17.90;99.90
64843;DHT22;51310;52.198;5.422;2022-09-09T17:33:55;17.80;99.90
64843;DHT22;51310;52.198;5.422;2022-09-09T17:36:33;17.80;99.90
64843;DHT22;51310;52.198;5.422;2022-09-09T17:39:00;17.80;99.90
64843;DHT22;51310;52.198;5.422;2022-09-09T17:41:32;17.80;99.90
64843;DHT22;51310;52.198;5.422;2022-09-09T17:44:04;17.80;99.90
64843;DHT22;51310;52.198;5.422;2022-09-09T17:46:40;17.70;99.90
64843;DHT22;51310;52.198;5.422;2022-09-09T17:49:11;17.70;99.90
64843;DHT22;51310;52.198;5.422;2022-09-09T17:51:40;17.70;99.90
64843;DHT22;51310;52.198;5.422;2022-09-09T17:54:11;17.70;99.90
64843;DHT22;51310;52.198;5.422;2022-09-09T17:56:41;17.80;99.90
64843;DHT22;51310;52.198;5.422;2022-09-09T17:59:08;17.80;99.90
64843;DHT22;51310;52.198;5.422;2022-09-09T18:01:38;17.80;99.90
64843;DHT22;51310;52.198;5.422;2022-09-09T18:04:09;17.80;99.90
64843;DHT22;51310;52.198;5.422;2022-09-09T18:06:41;17.80;99.90
64843;DHT22;51310;52.198;5.422;2022-09-09T18:09:17;17.80;99.90
64843;DHT22;51310;52.198;5.422;2022-09-09T18:11:51;17.80;99.90
64843;DHT22;51310;52.198;5.422;2022-09-09T18:14:23;17.80;99.90
64843;DHT22;51310;52.198;5.422;2022-09-09T18:16:59;17.80;99.90
64843;DHT22;51310;52.198;5.422;2022-09-09T18:19:29;17.80;99.90
64843;DHT22;51310;52.198;5.422;2022-09-09T18:22:03;17.80;99.90
64843;DHT22;51310;52.198;5.422;2022-09-09T18:24:30;17.80;99.90
64843;DHT22;51310;52.198;5.422;2022-09-09T18:26:57;17.80;99.90
64843;DHT22;51310;52.198;5.422;2022-09-09T18:29:23;17.60;99.90
64843;DHT22;51310;52.198;5.422;2022-09-09T18:31:51;17.60;99.90
64843;DHT22;51310;52.198;5.422;2022-09-09T18:34:19;17.60;99.90